Time;durP1;ratioP1;P1;durP2;ratioP2;P2;SDS_P1;SDS_P2;PMS_P1;PMS_P2;Temp;Humidity;BMP_temperature;BMP_pressure;BME280_temperature;BME280_humidity;BME280_pressure;Samples;Min_cycle;Max_cycle;Signal;HPM_P1;HPM_P2
2021/11/11 00:00:07;;;;;;;14.50;9.03;;;;;;;1.95;51.78;102059.12;1684453;83;21058;-63
2021/11/11 00:02:35;;;;;;;12.70;9.17;;;;;;;1.89;52.14;102058.18;1695146;83;21102;-62
2021/11/11 00:05:04;;;;;;;13.13;8.97;;;;;;;1.91;52.07;102064.20;1693165;83;21513;-61
2021/11/11 00:07:32;;;;;;;11.50;9.20;;;;;;;1.87;52.31;102063.16;1693493;83;21087;-63
2021/11/11 00:10:00;;;;;;;16.40;9.03;;;;;;;1.89;52.34;102066.55;1661594;84;21170;-65
2021/11/11 00:12:31;;;;;;;16.23;9.10;;;;;;;1.81;52.55;102061.73;1706032;83;21020;-65
2021/11/11 00:15:00;;;;;;;11.03;8.97;;;;;;;1.77;52.86;102060.67;1695798;83;21068;-64
2021/11/11 00:17:26;;;;;;;12.03;8.63;;;;;;;1.75;52.84;102049.79;1685462;83;20965;-65
2021/11/11 00:19:52;;;;;;;13.58;8.18;;;;;;;1.79;52.78;102050.46;1717055;83;21008;-65
2021/11/11 00:22:22;;;;;;;11.87;7.57;;;;;;;1.73;52.88;102045.09;1673770;82;21063;-66
2021/11/11 00:24:49;;;;;;;11.20;8.47;;;;;;;1.73;53.04;102042.91;1667905;84;21172;-64
2021/11/11 00:27:15;;;;;;;13.03;7.17;;;;;;;1.68;53.11;102036.62;1679885;84;21013;-64
2021/11/11 00:29:44;;;;;;;11.83;7.60;;;;;;;1.70;53.03;102032.12;1688109;84;21042;-65
2021/11/11 00:32:11;;;;;;;11.87;8.27;;;;;;;1.67;53.08;102038.02;1692328;84;21032;-64
2021/11/11 00:34:38;;;;;;;12.07;8.17;;;;;;;1.66;52.95;102029.29;1644563;84;21088;-65
2021/11/11 00:37:05;;;;;;;13.10;7.10;;;;;;;1.65;53.17;102020.17;1634317;85;21083;-64
2021/11/11 00:39:31;;;;;;;8.53;7.10;;;;;;;1.66;53.05;102018.77;1651114;85;21059;-64
2021/11/11 00:41:57;;;;;;;14.43;8.25;;;;;;;1.58;53.10;102032.81;1633890;85;20992;-62
2021/11/11 00:44:23;;;;;;;10.68;8.60;;;;;;;1.62;53.07;102025.59;1637442;85;21174;-63
2021/11/11 00:46:50;;;;;;;12.23;8.47;;;;;;;1.60;53.16;102029.66;1650457;85;21027;-63
2021/11/11 00:49:17;;;;;;;;;;;;;;;1.58;53.25;102026.23;1650736;85;21049;-63
2021/11/11 00:51:43;;;;;;;12.87;7.20;;;;;;;1.56;53.28;102018.91;1649658;86;20111;-63
2021/11/11 00:54:10;;;;;;;11.78;6.90;;;;;;;1.52;53.34;102020.87;1635535;86;21069;-63
2021/11/11 00:56:36;;;;;;;9.18;7.22;;;;;;;1.50;53.38;102013.54;1637174;86;21128;-62
2021/11/11 00:59:04;;;;;;;10.80;7.50;;;;;;;1.51;53.42;102022.30;1609940;86;21112;-63
2021/11/11 01:01:31;;;;;;;9.28;6.47;;;;;;;1.48;53.57;102015.89;1610712;87;21133;-63
2021/11/11 01:04:00;;;;;;;11.37;7.03;;;;;;;1.47;53.62;102018.12;1636044;86;21024;-62
2021/11/11 01:06:27;;;;;;;9.93;7.90;;;;;;;1.46;53.69;102015.13;1629712;86;21132;-66
2021/11/11 01:08:55;;;;;;;12.07;7.90;;;;;;;1.43;53.74;102008.28;1632679;86;21050;-65
2021/11/11 01:11:21;;;;;;;11.50;7.47;;;;;;;1.44;53.71;102008.64;1624970;86;21026;-65
2021/11/11 01:13:48;;;;;;;10.40;7.20;;;;;;;1.40;53.91;101992.69;1645733;86;21067;-63
2021/11/11 01:16:14;;;;;;;9.40;7.30;;;;;;;1.42;53.77;101992.13;1561156;89;21673;-63
2021/11/11 01:18:41;;;;;;;9.73;6.92;;;;;;;1.38;53.86;101991.92;1646327;86;21512;-61
2021/11/11 01:21:08;;;;;;;9.80;7.42;;;;;;;1.42;53.81;101978.98;1638785;86;21006;-62
2021/11/11 01:23:35;;;;;;;11.80;7.73;;;;;;;1.42;53.79;101991.28;1634334;86;21103;-64
2021/11/11 01:26:04;;;;;;;9.70;7.20;;;;;;;1.42;53.98;101995.23;1621519;86;21047;-62
2021/11/11 01:28:31;;;;;;;11.13;8.43;;;;;;;1.40;53.96;101993.16;1633736;86;22198;-63
2021/11/11 01:31:00;;;;;;;9.07;7.27;;;;;;;1.39;53.97;101984.41;1633537;86;21152;-71
2021/11/11 01:33:29;;;;;;;11.90;7.97;;;;;;;1.39;53.96;101980.94;1636185;84;21050;-63
2021/11/11 01:35:55;;;;;;;;;;;;;;;1.38;53.94;101973.53;1638995;86;21034;-64
2021/11/11 01:38:24;;;;;;;11.10;7.60;;;;;;;1.38;54.08;101976.64;1643374;86;20294;-63
2021/11/11 01:40:53;;;;;;;11.60;7.53;;;;;;;1.30;54.28;101983.62;1625911;86;21086;-62
2021/11/11 01:43:22;;;;;;;12.93;7.47;;;;;;;1.29;54.43;101975.38;1623703;86;21041;-65
2021/11/11 01:45:49;;;;;;;11.20;8.30;;;;;;;1.25;54.42;101976.02;1630212;86;21039;-62
2021/11/11 01:48:24;;;;;;;13.27;8.17;;;;;;;1.25;54.51;101962.88;1645405;86;21597;-63
2021/11/11 01:50:51;;;;;;;10.97;7.77;;;;;;;1.25;54.62;101971.23;1627812;86;21031;-63
2021/11/11 01:53:17;;;;;;;10.13;6.83;;;;;;;1.29;54.44;101964.39;1640193;86;20969;-63
2021/11/11 01:55:48;;;;;;;10.87;7.43;;;;;;;1.28;54.61;101974.98;1631968;86;21572;-63
2021/11/11 01:58:16;;;;;;;9.87;7.47;;;;;;;1.27;54.77;101957.54;1633709;86;21029;-64
2021/11/11 02:00:50;;;;;;;11.33;7.97;;;;;;;1.24;54.73;101949.83;1633154;86;21486;-63
2021/11/11 02:03:21;;;;;;;10.78;8.28;;;;;;;1.20;54.96;101950.47;1630076;86;21110;-64
2021/11/11 02:05:56;;;;;;;12.53;8.47;;;;;;;1.19;55.07;101943.98;1638947;86;21121;-63
2021/11/11 02:08:26;;;;;;;12.87;8.03;;;;;;;1.13;55.19;101935.98;1637789;86;21092;-64
2021/11/11 02:10:54;;;;;;;11.30;8.37;;;;;;;1.11;55.42;101929.98;1639663;86;21070;-64
2021/11/11 02:13:21;;;;;;;11.85;7.75;;;;;;;1.10;55.41;101923.05;1653848;86;21033;-63
2021/11/11 02:15:47;;;;;;;10.10;7.75;;;;;;;1.11;55.43;101928.22;1637123;86;20972;-63
2021/11/11 02:18:15;;;;;;;11.53;7.73;;;;;;;1.08;55.62;101926.23;1628934;86;21017;-64
2021/11/11 02:20:44;;;;;;;13.35;7.72;;;;;;;1.06;55.77;101916.28;1637770;86;21042;-63
2021/11/11 02:23:16;;;;;;;8.67;7.03;;;;;;;1.05;55.78;101920.67;1632624;86;21149;-67
2021/11/11 02:25:59;;;;;;;9.77;6.90;;;;;;;0.99;56.09;101921.03;1645586;86;21077;-64
2021/11/11 02:28:27;;;;;;;9.60;7.30;;;;;;;1.00;56.14;101913.55;1640671;86;21381;-64
2021/11/11 02:30:54;;;;;;;12.80;7.08;;;;;;;0.97;56.36;101925.05;1627776;86;21033;-63
2021/11/11 02:33:26;;;;;;;10.60;6.73;;;;;;;0.94;56.55;101919.13;1643487;86;21054;-64
2021/11/11 02:35:54;;;;;;;11.87;6.77;;;;;;;0.94;56.54;101916.05;1645919;86;21056;-64
2021/11/11 02:38:22;;;;;;;10.97;7.20;;;;;;;0.90;56.82;101913.20;1641922;86;21076;-64
2021/11/11 02:40:49;;;;;;;11.23;8.17;;;;;;;0.91;56.69;101915.37;1568541;89;21401;-64
2021/11/11 02:43:16;;;;;;;9.67;6.27;;;;;;;0.87;56.88;101912.08;1595501;88;21070;-65
2021/11/11 02:45:47;;;;;;;10.27;7.43;;;;;;;0.91;56.90;101914.06;1593415;87;21023;-64
2021/11/11 02:48:18;;;;;;;9.40;7.03;;;;;;;0.89;56.99;101915.94;1600574;87;21108;-63
2021/11/11 02:50:48;;;;;;;9.60;6.47;;;;;;;0.91;56.97;101907.50;1594492;87;21014;-63
2021/11/11 02:53:16;;;;;;;9.10;7.00;;;;;;;0.84;57.32;101907.46;1607773;87;21541;-66
2021/11/11 02:55:44;;;;;;;9.97;6.20;;;;;;;0.80;57.48;101904.16;1614702;88;21086;-64
2021/11/11 02:58:11;;;;;;;11.00;7.10;;;;;;;0.81;57.45;101905.00;1635120;86;21063;-65
2021/11/11 03:00:58;;;;;;;8.80;7.07;;;;;;;0.81;57.60;101897.99;1645249;85;21021;-64
2021/11/11 03:03:27;;;;;;;11.33;7.27;;;;;;;0.75;57.95;101893.06;1658566;85;21011;-62
2021/11/11 03:05:55;;;;;;;11.53;6.83;;;;;;;0.74;57.86;101891.39;1657679;85;22112;-62
2021/11/11 03:08:23;;;;;;;9.07;6.97;;;;;;;0.72;57.92;101882.76;1664543;85;21021;-63
2021/11/11 03:10:52;;;;;;;9.27;6.77;;;;;;;0.68;58.01;101886.02;1664171;85;21649;-62
2021/11/11 03:13:20;;;;;;;9.30;7.23;;;;;;;0.70;58.04;101887.25;1662424;84;21524;-63
2021/11/11 03:15:53;;;;;;;11.97;7.47;;;;;;;0.70;57.97;101886.78;1655938;85;21128;-63
2021/11/11 03:18:21;;;;;;;10.27;7.13;;;;;;;0.69;58.19;101877.67;1657333;85;21672;-64
2021/11/11 03:20:48;;;;;;;8.15;6.90;;;;;;;0.68;58.16;101866.78;1657026;85;21158;-64
2021/11/11 03:23:14;;;;;;;11.80;6.57;;;;;;;0.66;58.32;101859.02;1650108;85;21041;-66
2021/11/11 03:25:43;;;;;;;10.00;6.97;;;;;;;0.58;58.63;101867.77;1655222;85;21148;-63
2021/11/11 03:28:09;;;;;;;10.47;6.30;;;;;;;0.59;58.56;101866.84;1650747;85;21480;-64
2021/11/11 03:30:36;;;;;;;8.35;5.97;;;;;;;0.56;58.67;101860.45;1657245;85;21461;-64
2021/11/11 03:33:06;;;;;;;9.07;6.80;;;;;;;0.56;58.64;101857.35;1651472;84;21510;-63
2021/11/11 03:35:35;;;;;;;7.57;6.50;;;;;;;0.60;58.55;101858.50;1661557;84;21103;-65
2021/11/11 03:38:06;;;;;;;10.33;7.00;;;;;;;0.56;58.62;101848.64;1659320;84;21069;-62
2021/11/11 03:40:38;;;;;;;9.63;6.47;;;;;;;0.57;58.63;101838.06;1669300;84;21576;-63
2021/11/11 03:43:06;;;;;;;9.07;6.33;;;;;;;0.56;58.78;101836.83;1657502;84;21094;-64
2021/11/11 03:45:38;;;;;;;8.13;6.10;;;;;;;0.55;58.89;101828.60;1660574;84;21005;-62
2021/11/11 03:48:07;;;;;;;9.30;6.50;;;;;;;0.51;58.92;101821.81;1663766;84;21036;-69
2021/11/11 03:50:34;;;;;;;10.90;6.60;;;;;;;0.48;59.01;101814.97;1663817;84;21152;-64
2021/11/11 03:53:03;;;;;;;6.97;5.63;;;;;;;0.47;59.16;101808.48;1667011;84;20989;-63
2021/11/11 03:55:31;;;;;;;13.10;6.67;;;;;;;0.49;59.11;101811.88;1662584;84;21668;-65
2021/11/11 03:58:00;;;;;;;8.13;5.93;;;;;;;0.45;59.25;101813.81;1657744;84;21024;-64
2021/11/11 04:00:29;;;;;;;10.60;6.00;;;;;;;0.45;59.37;101794.62;1607022;86;21072;-64
2021/11/11 04:02:56;;;;;;;8.87;5.73;;;;;;;0.42;59.40;101796.95;1623302;86;21137;-66
2021/11/11 04:05:23;;;;;;;7.03;6.03;;;;;;;0.37;59.61;101793.74;1585978;89;21005;-64
2021/11/11 04:07:50;;;;;;;10.63;7.70;;;;;;;0.40;59.50;101793.58;1595953;87;21013;-63
2021/11/11 04:10:16;;;;;;;13.03;7.17;;;;;;;0.36;59.59;101790.28;1599526;87;21060;-72
2021/11/11 04:12:45;;;;;;;10.33;6.50;;;;;;;0.37;59.64;101778.84;1638787;84;21049;-64
2021/11/11 04:15:12;;;;;;;9.95;6.67;;;;;;;0.37;59.64;101781.94;1645853;84;21006;-65
2021/11/11 04:17:40;;;;;;;8.40;6.07;;;;;;;0.39;59.55;101776.14;1616405;87;21050;-63
2021/11/11 04:20:11;;;;;;;7.33;5.37;;;;;;;0.37;59.64;101784.09;1613653;87;21030;-63
2021/11/11 04:22:40;;;;;;;9.50;6.90;;;;;;;0.39;59.61;101777.45;1609871;86;21014;-62
2021/11/11 04:25:10;;;;;;;7.10;6.40;;;;;;;0.42;59.48;101782.53;1621743;85;21053;-63
2021/11/11 04:27:44;;;;;;;8.23;6.10;;;;;;;0.45;59.51;101777.09;1643290;86;21036;-61
2021/11/11 04:30:20;;;;;;;13.30;6.80;;;;;;;0.41;59.64;101780.83;1657570;84;21080;-64
2021/11/11 04:32:40;;;;;;;9.50;7.20;;;;;;;0.42;59.61;101777.28;1661271;84;21110;-64
2021/11/11 04:35:08;;;;;;;11.05;6.70;;;;;;;0.43;59.59;101772.87;1664906;83;21088;-63
2021/11/11 04:37:45;;;;;;;10.23;6.73;;;;;;;0.43;59.61;101768.47;1663967;84;21063;-63
2021/11/11 05:04:21;;;;;;;8.93;6.27;;;;;;;0.38;60.34;101741.20;1642788;86;21036;-65
2021/11/11 05:06:49;;;;;;;15.97;7.87;;;;;;;0.38;60.47;101742.51;1620892;86;21078;-64
2021/11/11 05:09:16;;;;;;;9.50;6.67;;;;;;;0.39;60.38;101739.41;1627572;86;21516;-64
2021/11/11 05:11:44;;;;;;;11.17;6.37;;;;;;;0.39;60.35;101747.28;1633759;83;21023;-70
2021/11/11 05:14:10;;;;;;;7.62;5.85;;;;;;;0.44;60.24;101759.67;1641631;86;21131;-64
2021/11/11 05:16:37;;;;;;;9.80;5.67;;;;;;;0.46;60.21;101762.22;1642498;86;21044;-64
2021/11/11 05:19:04;;;;;;;6.83;5.73;;;;;;;0.48;59.99;101761.19;1624883;86;21130;-63
2021/11/11 05:21:31;;;;;;;8.20;6.17;;;;;;;0.52;59.90;101765.79;1626094;86;21048;-64
2021/11/11 05:23:57;;;;;;;8.45;6.30;;;;;;;0.54;59.87;101770.01;1635096;82;20992;-63
2021/11/11 05:26:25;;;;;;;8.20;6.20;;;;;;;0.62;59.68;101771.35;1631006;86;21123;-65
2021/11/11 05:28:53;;;;;;;7.43;5.93;;;;;;;0.67;59.57;101762.75;1635822;86;21286;-65
2021/11/11 05:31:20;;;;;;;9.50;6.97;;;;;;;0.84;58.99;101763.92;1628391;86;21043;-63
2021/11/11 05:33:46;;;;;;;8.10;5.63;;;;;;;1.16;58.62;101750.66;1624622;84;21224;-65
2021/11/11 05:36:13;;;;;;;8.08;6.20;;;;;;;1.52;57.23;101755.44;1633112;86;21041;-65
2021/11/11 05:38:39;;;;;;;12.10;6.92;;;;;;;1.58;56.78;101751.58;1638757;86;21621;-64
2021/11/11 05:41:06;;;;;;;7.20;6.10;;;;;;;1.50;56.72;101756.00;1620460;86;21072;-64
2021/11/11 05:43:33;;;;;;;8.43;5.90;;;;;;;1.34;57.22;101757.91;1628486;86;21123;-64
2021/11/11 05:46:00;;;;;;;7.50;5.47;;;;;;;1.30;57.17;101741.92;1626581;83;20995;-68
2021/11/11 05:48:27;;;;;;;11.03;6.20;;;;;;;1.25;57.37;101744.02;1622946;86;21087;-66
2021/11/11 05:50:53;;;;;;;7.60;6.35;;;;;;;1.14;57.67;101742.86;1631960;86;21076;-65
2021/11/11 05:53:20;;;;;;;10.68;6.17;;;;;;;1.15;57.66;101741.10;1631728;86;21085;-65
2021/11/11 05:55:48;;;;;;;7.57;5.77;;;;;;;1.13;57.66;101727.19;1623616;83;21587;-65
2021/11/11 05:58:16;;;;;;;8.33;6.13;;;;;;;1.13;57.60;101728.06;1641201;86;21000;-65
2021/11/11 06:00:42;;;;;;;9.38;5.72;;;;;;;1.19;57.53;101720.72;1629519;86;21123;-65
2021/11/11 06:03:14;;;;;;;11.50;6.40;;;;;;;1.25;57.26;101718.58;1639990;86;21108;-64
2021/11/11 06:05:40;;;;;;;10.50;5.53;;;;;;;1.25;57.35;101732.19;1641087;86;21030;-65
2021/11/11 06:08:09;;;;;;;9.87;5.23;;;;;;;1.30;57.20;101728.34;1640202;86;21135;-65
2021/11/11 06:10:35;;;;;;;;;;;;;;;1.36;57.03;101729.27;1643095;86;21096;-65
2021/11/11 06:13:03;;;;;;;5.83;5.13;;;;;;;1.38;56.78;101730.50;1641779;84;20205;-65
2021/11/11 06:15:33;;;;;;;14.30;6.10;;;;;;;1.39;56.95;101726.08;1636684;86;21036;-67
2021/11/11 06:17:59;;;;;;;5.93;4.87;;;;;;;1.44;56.88;101734.05;1641455;86;21073;-65
2021/11/11 06:20:39;;;;;;;8.63;5.77;;;;;;;1.53;56.56;101719.51;1634367;86;21473;-65
2021/11/11 06:23:02;;;;;;;7.77;5.43;;;;;;;1.64;56.44;101729.33;1642265;82;21615;-64
2021/11/11 06:25:29;;;;;;;8.35;6.20;;;;;;;1.66;56.24;101727.00;1631418;86;21303;-66
2021/11/11 06:27:57;;;;;;;8.80;6.33;;;;;;;1.66;56.19;101718.28;1626971;86;21211;-68
2021/11/11 06:30:25;;;;;;;12.53;6.07;;;;;;;1.74;56.11;101723.88;1626008;86;21080;-66
2021/11/11 06:32:51;;;;;;;9.93;5.93;;;;;;;1.75;55.83;101709.78;1635617;86;21261;-67
2021/11/11 06:35:20;;;;;;;8.77;6.27;;;;;;;1.72;56.06;101710.83;1617527;84;21106;-67
2021/11/11 06:37:46;;;;;;;8.23;5.62;;;;;;;1.41;56.14;101651.95;1621192;86;21065;-66
2021/11/11 06:40:14;;;;;;;8.93;5.45;;;;;;;1.66;56.41;101684.11;1629919;86;21118;-68
2021/11/11 06:42:41;;;;;;;10.73;6.53;;;;;;;1.60;56.64;101686.66;1612556;86;21071;-67
2021/11/11 06:45:12;;;;;;;5.92;5.30;;;;;;;1.63;56.47;101691.70;1623557;84;21018;-67
2021/11/11 06:47:40;;;;;;;7.67;5.77;;;;;;;1.64;56.65;101684.20;1628710;86;21608;-68
2021/11/11 06:50:09;;;;;;;7.57;6.07;;;;;;;1.72;56.46;101695.06;1629408;86;21211;-69
2021/11/11 06:52:39;;;;;;;7.77;5.87;;;;;;;1.81;56.32;101698.03;1626930;86;21130;-65
2021/11/11 06:55:07;;;;;;;7.60;5.53;;;;;;;1.92;55.97;101699.05;1627689;85;21022;-67
2021/11/11 06:57:36;;;;;;;7.10;5.43;;;;;;;1.98;55.49;101694.31;1625035;86;21118;-65
2021/11/11 07:00:10;;;;;;;7.37;6.17;;;;;;;2.11;55.15;101689.50;1622409;86;21022;-65
2021/11/11 07:02:37;;;;;;;6.27;5.67;;;;;;;2.20;54.89;101682.77;1565100;89;20998;-65
2021/11/11 07:05:06;;;;;;;8.60;6.20;;;;;;;2.31;54.65;101682.07;1604485;87;21043;-65
2021/11/11 07:07:33;;;;;;;7.57;6.13;;;;;;;2.31;54.57;101681.59;1670497;84;21020;-66
2021/11/11 07:09:59;;;;;;;11.25;5.95;;;;;;;2.37;54.48;101680.34;1666049;84;20997;-64
2021/11/11 07:12:26;;;;;;;9.27;5.30;;;;;;;2.46;54.45;101677.09;1609955;86;20976;-66
2021/11/11 07:14:53;;;;;;;12.47;6.70;;;;;;;2.56;54.23;101673.84;1612936;87;21044;-67
2021/11/11 07:17:19;;;;;;;6.83;5.30;;;;;;;2.62;53.95;101679.56;1610601;87;21562;-65
2021/11/11 07:19:47;;;;;;;8.50;6.10;;;;;;;2.75;53.67;101682.20;1614296;87;21127;-65
2021/11/11 07:22:13;;;;;;;8.47;6.20;;;;;;;2.82;53.39;101686.08;1669375;84;21016;-66
2021/11/11 07:24:40;;;;;;;11.65;6.60;;;;;;;2.85;53.24;101675.34;1665469;84;21053;-66
2021/11/11 07:27:07;;;;;;;13.83;5.95;;;;;;;2.98;52.59;101689.84;1669695;84;21049;-66
2021/11/11 07:29:34;;;;;;;7.60;6.03;;;;;;;3.00;52.39;101690.58;1611370;87;21012;-64
2021/11/11 07:32:00;;;;;;;8.68;6.55;;;;;;;3.06;52.54;101684.87;1606562;87;21039;-66
2021/11/11 07:34:27;;;;;;;16.40;7.00;;;;;;;3.15;52.35;101683.41;1612640;86;21053;-65
2021/11/11 07:36:54;;;;;;;13.90;6.67;;;;;;;3.23;51.82;101681.06;1595884;87;21046;-65
2021/11/11 07:39:22;;;;;;;10.83;5.53;;;;;;;3.26;51.25;101666.37;1647000;84;20993;-65
2021/11/11 07:41:48;;;;;;;14.90;5.57;;;;;;;3.38;50.76;101666.45;1650895;84;21623;-66
2021/11/11 07:44:18;;;;;;;8.70;6.03;;;;;;;3.42;50.64;101672.70;1648569;84;21056;-66
2021/11/11 07:46:44;;;;;;;8.55;6.15;;;;;;;3.53;50.62;101666.67;1616508;87;21480;-66
2021/11/11 07:49:11;;;;;;;13.08;6.22;;;;;;;3.62;49.93;101666.02;1597175;87;21717;-66
2021/11/11 07:51:38;;;;;;;8.33;6.13;;;;;;;3.71;48.95;101664.48;1601195;87;21059;-69
2021/11/11 07:54:04;;;;;;;;;;;;;;;3.73;49.06;101660.42;1616960;87;21039;-65
2021/11/11 07:56:31;;;;;;;11.73;6.73;;;;;;;3.75;49.08;101650.60;1650238;84;20178;-65
2021/11/11 07:58:57;;;;;;;18.23;6.47;;;;;;;3.77;49.37;101647.37;1592211;89;21034;-66
2021/11/11 08:01:24;;;;;;;8.23;5.33;;;;;;;3.89;48.96;101643.86;1659348;83;21503;-66
2021/11/11 08:03:50;;;;;;;8.03;5.92;;;;;;;4.03;48.53;101638.87;1642038;84;21106;-67
2021/11/11 08:06:16;;;;;;;14.90;6.08;;;;;;;4.13;48.46;101632.45;1649674;84;21001;-68
2021/11/11 08:08:42;;;;;;;9.45;5.00;;;;;;;4.16;48.00;101632.20;1648005;84;21522;-66
2021/11/11 08:11:08;;;;;;;9.18;6.08;;;;;;;4.23;47.71;101632.95;1597295;87;21079;-67
2021/11/11 08:13:34;;;;;;;10.40;6.53;;;;;;;4.33;47.65;101635.73;1632869;86;21631;-67
2021/11/11 08:16:01;;;;;;;9.10;6.72;;;;;;;4.41;47.37;101635.18;1602457;87;21038;-69
2021/11/11 08:18:28;;;;;;;9.88;5.90;;;;;;;4.47;47.40;101636.86;1595593;87;21553;-66
2021/11/11 08:20:54;;;;;;;8.50;6.13;;;;;;;4.52;47.48;101641.80;1645538;84;21571;-70
2021/11/11 08:23:22;;;;;;;8.08;6.17;;;;;;;4.61;47.53;101634.96;1649812;84;20999;-66
2021/11/11 08:25:50;;;;;;;10.33;5.90;;;;;;;4.71;47.40;101635.09;1666092;84;21024;-65
2021/11/11 08:28:20;;;;;;;6.63;5.50;;;;;;;4.74;47.00;101631.73;1670081;84;21009;-67
2021/11/11 08:30:48;;;;;;;8.90;6.33;;;;;;;4.81;46.62;101636.08;1602929;87;21044;-67
2021/11/11 08:33:16;;;;;;;11.70;6.07;;;;;;;4.87;46.70;101641.71;1605415;86;21092;-67
2021/11/11 08:35:44;;;;;;;10.97;6.40;;;;;;;4.95;47.04;101641.59;1614517;87;21066;-66
2021/11/11 08:38:11;;;;;;;9.33;6.17;;;;;;;5.06;46.71;101631.03;1614082;87;21123;-68
2021/11/11 08:40:37;;;;;;;;;;;;;;;5.18;46.33;101621.28;1607256;87;21116;-70
2021/11/11 08:43:07;;;;;;;;;;;;;;;5.23;45.90;101619.95;1650111;83;20192;-65
2021/11/11 08:45:36;;;;;;;11.40;7.43;;;;;;;5.21;46.16;101619.23;1663306;84;20171;-67
2021/11/11 08:48:04;;;;;;;7.80;6.37;;;;;;;5.25;46.40;101611.45;1660554;84;20993;-65
2021/11/11 08:50:34;;;;;;;7.53;6.17;;;;;;;5.36;45.84;101611.06;1657671;84;21036;-65
2021/11/11 08:53:03;;;;;;;9.70;5.50;;;;;;;5.43;45.79;101613.08;1652908;84;21069;-66
2021/11/11 08:55:32;;;;;;;10.67;6.40;;;;;;;5.52;45.33;101608.87;1607044;87;21048;-66
2021/11/11 08:57:59;;;;;;;11.40;6.30;;;;;;;5.63;45.06;101586.35;1600338;87;21085;-67
2021/11/11 09:00:32;;;;;;;9.83;5.87;;;;;;;5.69;44.74;101600.02;1601854;87;21073;-66
2021/11/11 09:03:00;;;;;;;14.47;6.30;;;;;;;5.72;44.86;101578.62;1600062;87;21074;-68
2021/11/11 09:05:34;;;;;;;8.40;6.00;;;;;;;5.80;44.42;101578.36;1594049;87;21092;-65
2021/11/11 09:08:04;;;;;;;14.97;8.97;;;;;;;5.90;44.46;101561.72;1600393;87;21668;-67
2021/11/11 09:10:32;;;;;;;18.87;12.20;;;;;;;6.01;43.97;101565.17;1597601;87;21123;-67
2021/11/11 09:12:59;;;;;;;16.13;7.80;;;;;;;6.12;43.63;101555.47;1617234;86;21061;-66
2021/11/11 09:15:28;;;;;;;;;;;;;;;6.18;43.64;101547.03;1658395;84;21046;-66
2021/11/11 09:17:59;;;;;;;15.73;10.20;;;;;;;6.24;43.66;101536.75;1655129;84;20108;-68
2021/11/11 09:20:28;;;;;;;9.73;6.90;;;;;;;6.27;43.41;101533.48;1645729;85;21555;-69
2021/11/11 09:22:59;;;;;;;13.13;7.30;;;;;;;6.34;42.63;101526.20;1646910;84;21037;-68
2021/11/11 09:25:27;;;;;;;7.03;4.83;;;;;;;6.42;42.16;101521.11;1619513;86;21070;-66
2021/11/11 09:27:55;;;;;;;8.33;6.53;;;;;;;6.53;42.15;101525.45;1626138;86;21019;-66
2021/11/11 09:30:26;;;;;;;6.43;5.10;;;;;;;6.61;42.20;101522.14;1629530;86;21080;-70
2021/11/11 09:32:54;;;;;;;9.20;4.73;;;;;;;6.61;42.29;101504.92;1633690;86;21082;-67
2021/11/11 09:35:22;;;;;;;7.00;4.83;;;;;;;6.67;42.49;101500.43;1609651;86;20998;-65
2021/11/11 09:37:49;;;;;;;10.33;4.97;;;;;;;6.72;41.11;101487.59;1635257;86;21038;-68
2021/11/11 09:40:18;;;;;;;;;;;;;;;6.71;41.14;101483.78;1598613;88;21034;-67
2021/11/11 09:42:46;;;;;;;9.97;5.67;;;;;;;6.73;41.21;101486.63;1642578;85;20162;-67
2021/11/11 09:45:18;;;;;;;13.53;5.53;;;;;;;6.73;41.43;101468.58;1658534;84;21028;-68
2021/11/11 09:47:47;;;;;;;9.40;5.17;;;;;;;6.78;41.53;101464.55;1655664;84;21120;-66
2021/11/11 09:50:16;;;;;;;10.23;6.23;;;;;;;6.91;41.35;101462.12;1651229;84;21169;-65
2021/11/11 09:52:43;;;;;;;7.43;5.20;;;;;;;7.00;40.88;101454.67;1665784;84;21053;-65
2021/11/11 10:00:50;;;;;;;6.87;4.20;;;;;;;7.11;40.82;101432.51;1681787;83;22096;-66
2021/11/11 10:03:16;;;;;;;7.20;3.93;;;;;;;7.12;40.71;101431.05;1680656;83;21061;-67
2021/11/11 10:05:45;;;;;;;8.60;4.33;;;;;;;7.15;41.01;101425.45;1683389;83;21483;-70
2021/11/11 10:08:43;;;;;;;11.17;4.77;;;;;;;7.20;41.04;101429.02;1678062;83;21018;-66
2021/11/11 10:11:15;;;;;;;9.30;5.67;;;;;;;7.19;40.67;101414.91;1683678;82;21466;-67
2021/11/11 10:13:41;;;;;;;6.10;4.13;;;;;;;7.20;40.93;101404.66;1676355;83;21543;-67
2021/11/11 10:16:14;;;;;;;6.10;4.78;;;;;;;7.14;41.11;101390.64;1670129;84;21450;-66
2021/11/11 10:18:59;;;;;;;7.67;4.93;;;;;;;7.17;41.17;101393.00;1651251;85;21021;-65
2021/11/11 10:24:46;;;;;;;11.93;4.60;;;;;;;7.24;40.95;101389.80;1655440;83;21065;-65
2021/11/11 10:30:23;;;;;;;4.10;3.70;;;;;;;7.36;39.39;101369.59;1647827;85;21032;-68
2021/11/11 10:33:07;;;;;;;8.07;4.03;;;;;;;7.41;38.72;101352.78;1642789;85;21072;-66
2021/11/11 10:35:38;;;;;;;6.73;3.43;;;;;;;7.49;38.98;101341.45;1653884;85;21589;-66
2021/11/11 10:38:11;;;;;;;10.63;3.80;;;;;;;7.54;38.94;101332.58;1652092;84;21041;-68
2021/11/11 10:40:44;;;;;;;12.07;3.63;;;;;;;7.60;38.66;101320.55;1647987;84;21052;-67
2021/11/11 10:43:15;;;;;;;12.97;3.67;;;;;;;7.62;38.44;101308.47;1662068;84;21017;-67
2021/11/11 10:45:45;;;;;;;10.67;4.00;;;;;;;7.70;38.17;101311.22;1644225;84;21006;-65
2021/11/11 10:48:15;;;;;;;7.97;3.90;;;;;;;7.80;38.02;101317.34;1654363;84;21040;-68
2021/11/11 10:50:48;;;;;;;11.03;4.17;;;;;;;7.87;37.84;101329.52;1658466;84;21029;-67
2021/11/11 10:53:22;;;;;;;9.87;4.13;;;;;;;7.90;37.73;101330.06;1656272;84;21136;-65
2021/11/11 10:55:52;;;;;;;4.37;3.10;;;;;;;7.93;37.99;101327.13;1658469;84;21068;-66
2021/11/11 10:58:27;;;;;;;8.43;3.90;;;;;;;7.90;37.93;101336.70;1646958;85;21150;-67
2021/11/11 11:01:00;;;;;;;7.53;4.20;;;;;;;7.87;38.35;101336.16;1636556;85;21064;-68
2021/11/11 11:04:55;;;;;;;7.03;4.27;;;;;;;7.88;38.71;101334.69;1771041;78;22278;-65
2021/11/11 11:07:23;;;;;;;7.47;4.30;;;;;;;7.87;38.91;101335.66;1742725;80;21057;-65
2021/11/11 11:09:55;;;;;;;6.20;3.97;;;;;;;7.88;38.77;101330.70;1748985;80;20986;-66
2021/11/11 11:12:31;;;;;;;10.90;3.57;;;;;;;7.91;38.43;101321.14;1735143;80;21516;-67
2021/11/11 11:14:56;;;;;;;7.83;3.83;;;;;;;7.94;38.10;101329.29;1704110;83;21077;-68
2021/11/11 11:17:23;;;;;;;10.25;4.47;;;;;;;8.01;37.98;101329.05;1729227;81;21069;-67
2021/11/11 11:19:50;;;;;;;5.40;3.43;;;;;;;8.08;38.03;101319.98;1732658;81;21030;-67
2021/11/11 11:22:24;;;;;;;5.35;4.17;;;;;;;8.16;38.22;101312.13;1720040;80;21146;-67
2021/11/11 11:25:05;;;;;;;5.93;3.33;;;;;;;8.24;38.01;101300.27;1655636;84;21114;-67
2021/11/11 11:27:35;;;;;;;6.77;3.10;;;;;;;8.26;37.86;101308.09;1658585;84;21103;-68
2021/11/11 11:30:11;;;;;;;5.37;3.03;;;;;;;8.26;37.88;101298.29;1657243;84;21077;-67
2021/11/11 11:32:35;;;;;;;4.83;3.63;;;;;;;8.28;38.04;101291.50;1654726;84;21147;-67
2021/11/11 11:35:04;;;;;;;8.23;3.87;;;;;;;8.30;38.18;101285.55;1692451;82;21080;-68
2021/11/11 11:37:35;;;;;;;8.60;4.23;;;;;;;8.33;38.24;101282.60;1700046;83;21057;-66
2021/11/11 11:40:13;;;;;;;8.27;4.03;;;;;;;8.36;38.48;101283.14;1700026;83;21201;-69
2021/11/11 11:42:44;;;;;;;6.23;4.33;;;;;;;8.39;38.46;101285.47;1698335;83;21148;-68
2021/11/11 11:45:19;;;;;;;7.10;5.23;;;;;;;8.42;38.42;101274.23;1674261;81;21603;-69
2021/11/11 11:47:52;;;;;;;7.87;3.73;;;;;;;8.42;38.54;101275.09;1651460;85;21157;-67
2021/11/11 11:50:26;;;;;;;7.33;3.67;;;;;;;8.38;38.54;101274.99;1649546;85;21032;-67
2021/11/11 11:52:58;;;;;;;6.17;4.40;;;;;;;8.33;38.64;101263.50;1656020;85;21047;-65
2021/11/11 11:55:33;;;;;;;5.20;4.57;;;;;;;8.30;38.91;101262.97;1655696;85;21076;-68
2021/11/11 12:40:18;;;;;;;5.30;3.40;;;;;;;8.52;38.63;101216.05;1670678;83;21041;-67
2021/11/11 12:42:55;;;;;;;10.70;4.00;;;;;;;8.55;38.70;101217.55;1686645;83;21104;-67
2021/11/11 12:45:35;;;;;;;7.17;3.98;;;;;;;8.55;38.67;101207.78;1688706;83;21033;-65
2021/11/11 12:48:15;;;;;;;6.13;4.27;;;;;;;8.58;38.71;101215.93;1686692;83;21501;-68
2021/11/11 12:50:59;;;;;;;11.53;5.07;;;;;;;8.61;38.73;101224.94;1682926;83;21085;-66
2021/11/11 12:53:46;;;;;;;7.40;4.57;;;;;;;8.61;38.99;101211.65;1622735;86;21120;-68
2021/11/11 12:56:18;;;;;;;7.97;5.62;;;;;;;8.61;39.04;101217.44;1638868;83;21137;-68
2021/11/11 12:58:58;;;;;;;9.57;4.63;;;;;;;8.61;39.13;101230.25;1640266;85;21073;-67